Time;durP1;ratioP1;P1;durP2;ratioP2;P2;SDS_P1;SDS_P2;PMS_P1;PMS_P2;Temp;Humidity;BMP_temperature;BMP_pressure;BME280_temperature;BME280_humidity;BME280_pressure;Samples;Min_cycle;Max_cycle;Signal;HPM_P1;HPM_P2
2022/02/20 00:00:56;;;;;;;47.95;22.88;;;;;;;6.53;68.53;97502.78;5019550;28;20033;-85
2022/02/20 00:03:22;;;;;;;44.80;22.15;;;;;;;6.55;69.35;97500.94;5053148;28;20029;-85
2022/02/20 00:05:48;;;;;;;40.85;20.65;;;;;;;6.53;69.41;97508.97;5018530;28;20088;-85
2022/02/20 00:08:13;;;;;;;50.67;21.70;;;;;;;6.40;69.99;97502.50;5036074;28;20056;-85
2022/02/20 00:10:39;;;;;;;69.40;27.58;;;;;;;6.43;70.03;97491.72;5019802;28;20080;-87
2022/02/20 00:13:04;;;;;;;56.72;25.45;;;;;;;6.50;69.58;97500.28;5053009;28;20033;-86
2022/02/20 00:15:31;;;;;;;46.08;22.27;;;;;;;6.47;69.61;97501.28;5051878;28;20098;-85
2022/02/20 00:17:58;;;;;;;48.35;21.35;;;;;;;6.35;69.54;97471.78;5020072;28;20060;-85
2022/02/20 00:20:29;;;;;;;52.47;24.77;;;;;;;6.57;69.71;97501.72;5020184;28;20171;-84
2022/02/20 00:22:55;;;;;;;47.70;24.08;;;;;;;6.56;69.96;97489.34;5052615;28;20408;-85
2022/02/20 00:25:21;;;;;;;41.60;21.70;;;;;;;6.50;69.43;97476.38;5036063;28;20484;-86
2022/02/20 00:27:47;;;;;;;53.28;24.92;;;;;;;6.49;69.93;97478.16;5052071;28;20067;-86
2022/02/20 00:30:13;;;;;;;52.25;24.02;;;;;;;6.43;70.45;97477.56;5036456;28;20078;-84
2022/02/20 00:32:39;;;;;;;49.72;23.98;;;;;;;6.50;70.27;97485.19;5052814;28;20088;-86
2022/02/20 00:35:05;;;;;;;57.63;25.30;;;;;;;6.59;69.64;97483.03;5019301;28;20028;-87
2022/02/20 00:37:30;;;;;;;46.55;23.55;;;;;;;6.55;70.05;97485.00;5052019;28;20496;-86
2022/02/20 00:39:56;;;;;;;40.38;21.63;;;;;;;6.48;70.37;97478.25;5052179;28;20021;-86
2022/02/20 00:42:21;;;;;;;47.15;21.98;;;;;;;6.46;70.50;97480.13;5019490;28;20480;-85
2022/02/20 00:44:47;;;;;;;46.10;21.98;;;;;;;6.44;70.78;97477.50;5019575;28;20032;-86
2022/02/20 00:47:12;;;;;;;47.20;22.63;;;;;;;6.48;70.80;97475.59;5051589;28;20033;-85
2022/02/20 00:49:38;;;;;;;50.67;24.25;;;;;;;6.39;71.00;97476.88;5051298;28;20033;-85
2022/02/20 00:52:04;;;;;;;48.45;25.17;;;;;;;6.42;71.42;97478.53;5051654;28;20111;-85
2022/02/20 00:54:29;;;;;;;53.67;26.40;;;;;;;6.45;71.10;97476.59;5052150;28;20029;-86
2022/02/20 00:56:55;;;;;;;53.97;27.40;;;;;;;6.42;71.37;97475.88;5051800;28;20033;-87
2022/02/20 00:59:20;;;;;;;56.42;27.48;;;;;;;6.42;71.13;97460.81;5052373;28;20488;-85
2022/02/20 01:01:46;;;;;;;54.78;28.15;;;;;;;6.44;71.05;97466.03;5052056;28;20400;-87
2022/02/20 01:04:12;;;;;;;73.13;32.30;;;;;;;6.35;70.99;97451.38;5051932;28;20456;-86
2022/02/20 01:06:37;;;;;;;70.03;32.22;;;;;;;6.41;71.03;97452.88;5051522;28;20032;-86
2022/02/20 01:09:04;;;;;;;67.32;31.60;;;;;;;6.55;70.96;97464.56;5051249;28;20417;-87
2022/02/20 01:11:30;;;;;;;65.03;31.83;;;;;;;6.54;71.15;97459.34;5018900;28;20115;-86
2022/02/20 01:13:55;;;;;;;78.47;34.00;;;;;;;6.53;71.40;97461.16;5051731;28;20496;-85
2022/02/20 01:16:21;;;;;;;87.22;35.90;;;;;;;6.52;71.01;97455.91;5035412;28;20119;-85
2022/02/20 01:18:47;;;;;;;84.22;35.47;;;;;;;6.54;70.83;97443.41;5018773;28;20097;-85
2022/02/20 01:21:13;;;;;;;76.88;36.42;;;;;;;6.59;70.43;97436.06;5013303;28;20518;-87
2022/02/20 01:23:38;;;;;;;85.47;38.92;;;;;;;6.66;70.37;97426.00;5018098;28;20029;-85
2022/02/20 01:26:04;;;;;;;77.40;36.58;;;;;;;6.73;69.71;97438.94;5013020;28;20032;-85
2022/02/20 01:28:29;;;;;;;84.75;39.25;;;;;;;6.71;69.97;97430.16;5051525;28;20028;-86
2022/02/20 01:30:55;;;;;;;73.88;34.92;;;;;;;6.69;70.16;97429.38;5015829;28;20033;-85
2022/02/20 01:33:20;;;;;;;76.07;34.70;;;;;;;6.72;70.57;97436.34;5013637;28;20132;-87
2022/02/20 01:35:46;;;;;;;66.88;30.20;;;;;;;6.59;70.97;97445.84;5042748;28;20483;-87
2022/02/20 01:38:15;;;;;;;58.63;25.70;;;;;;;6.38;72.04;97442.41;5015017;28;20029;-87
2022/02/20 01:40:45;;;;;;;56.95;25.67;;;;;;;6.41;72.68;97444.91;5036505;28;20036;-87
2022/02/20 01:43:12;;;;;;;63.97;26.73;;;;;;;6.21;73.42;97429.06;5032468;28;20029;-87
2022/02/20 01:45:39;;;;;;;54.50;26.48;;;;;;;6.10;73.92;97437.50;5046786;28;20059;-87
2022/02/20 01:48:05;;;;;;;56.40;27.45;;;;;;;6.07;74.52;97452.72;5051975;28;20044;-87
2022/02/20 01:50:32;;;;;;;58.42;28.85;;;;;;;5.89;75.30;97460.59;5051667;28;20020;-87
2022/02/20 01:52:58;;;;;;;55.38;27.75;;;;;;;6.11;75.01;97473.75;5034415;28;20095;-86
2022/02/20 01:55:24;;;;;;;56.35;25.42;;;;;;;5.95;74.63;97455.00;5015210;28;20028;-85
2022/02/20 01:57:49;;;;;;;52.35;23.88;;;;;;;6.09;74.93;97456.19;5017828;28;20021;-85
2022/02/20 02:00:17;;;;;;;47.58;21.63;;;;;;;6.10;73.90;97448.13;5049725;28;20178;-87
2022/02/20 02:02:44;;;;;;;42.42;19.30;;;;;;;6.09;73.03;97449.06;5036513;28;20029;-86
2022/02/20 02:05:09;;;;;;;57.00;24.20;;;;;;;6.01;73.77;97451.22;5022420;28;20033;-87
2022/02/20 02:07:35;;;;;;;56.58;22.60;;;;;;;5.87;75.49;97440.38;5055119;28;20262;-86
2022/02/20 02:10:00;;;;;;;40.03;19.88;;;;;;;5.81;75.93;97428.22;5051536;28;20510;-86
2022/02/20 02:12:26;;;;;;;42.50;20.92;;;;;;;5.75;76.30;97431.09;5032946;28;20078;-85
2022/02/20 02:14:58;;;;;;;38.88;18.08;;;;;;;5.66;76.80;97436.81;5055198;28;20412;-86
2022/02/20 02:17:24;;;;;;;42.13;18.90;;;;;;;5.54;77.53;97426.75;5070904;28;20048;-86
2022/02/20 02:19:50;;;;;;;40.67;19.33;;;;;;;5.61;77.35;97433.53;5021779;28;20032;-85
2022/02/20 02:22:20;;;;;;;38.17;19.70;;;;;;;5.75;76.32;97425.81;5054281;28;20526;-85
2022/02/20 02:24:46;;;;;;;45.80;20.85;;;;;;;5.75;77.05;97431.09;5021413;28;20029;-86
2022/02/20 02:27:13;;;;;;;45.35;19.98;;;;;;;5.67;77.82;97424.44;5054843;28;20032;-86
2022/02/20 02:29:42;;;;;;;44.97;19.83;;;;;;;5.66;77.87;97428.88;5021685;28;20029;-85
2022/02/20 02:32:08;;;;;;;37.15;18.23;;;;;;;5.56;78.70;97411.66;5054749;28;20021;-86
2022/02/20 02:34:34;;;;;;;38.97;17.95;;;;;;;5.56;79.44;97413.44;5054238;28;20087;-86
2022/02/20 02:36:59;;;;;;;41.33;19.23;;;;;;;5.48;79.61;97405.81;5054528;28;20463;-86
2022/02/20 02:39:25;;;;;;;40.38;19.73;;;;;;;5.52;79.11;97412.72;5054600;28;20067;-86
2022/02/20 02:41:50;;;;;;;37.83;19.50;;;;;;;5.59;79.15;97419.47;5055093;28;20557;-87
2022/02/20 02:44:16;;;;;;;43.90;18.98;;;;;;;5.58;79.01;97412.44;5036778;28;20037;-85
2022/02/20 02:46:44;;;;;;;38.50;19.80;;;;;;;5.56;78.62;97409.00;5021315;28;20028;-87
2022/02/20 02:49:12;;;;;;;39.83;20.13;;;;;;;5.44;78.50;97389.16;5071747;28;20131;-85
2022/02/20 02:51:39;;;;;;;47.45;21.15;;;;;;;5.51;78.15;97402.19;5021379;28;20021;-86
2022/02/20 02:54:10;;;;;;;44.15;20.90;;;;;;;5.40;78.16;97392.91;5054090;28;20047;-85
2022/02/20 02:56:36;;;;;;;43.40;20.83;;;;;;;5.58;78.05;97411.56;5053391;28;20083;-84
2022/02/20 02:59:02;;;;;;;45.13;21.70;;;;;;;5.51;77.75;97395.06;5020328;28;20083;-83
2022/02/20 03:01:28;;;;;;;73.30;34.28;;;;;;;5.59;77.09;97402.69;5037458;28;20408;-85
2022/02/20 03:03:54;;;;;;;52.15;26.10;;;;;;;5.69;77.45;97420.78;5053254;28;20025;-84
2022/02/20 03:06:19;;;;;;;55.83;23.83;;;;;;;5.70;76.81;97406.59;5053610;28;20025;-84
2022/02/20 03:08:45;;;;;;;51.85;25.65;;;;;;;5.72;76.53;97402.06;5053317;28;20512;-84
2022/02/20 03:11:10;;;;;;;66.82;34.40;;;;;;;5.79;76.03;97403.50;5052582;28;20020;-84
2022/02/20 03:13:37;;;;;;;52.50;25.70;;;;;;;5.88;75.98;97415.53;5052998;28;20483;-84
2022/02/20 03:16:04;;;;;;;60.50;28.55;;;;;;;5.91;76.07;97412.72;5019989;28;20107;-83
2022/02/20 03:18:31;;;;;;;75.43;36.97;;;;;;;5.90;75.54;97413.69;5020180;28;20509;-85
2022/02/20 03:20:58;;;;;;;62.22;27.92;;;;;;;6.00;75.22;97420.28;5019972;28;20128;-85
2022/02/20 03:23:24;;;;;;;48.97;23.73;;;;;;;6.01;75.80;97424.66;5052673;28;20036;-84
2022/02/20 03:25:50;;;;;;;42.13;19.60;;;;;;;5.96;75.93;97416.94;5052532;28;20428;-85
2022/02/20 03:28:16;;;;;;;36.35;18.83;;;;;;;5.97;76.29;97426.59;5019598;28;20126;-83
2022/02/20 03:30:41;;;;;;;34.90;18.08;;;;;;;6.02;75.91;97418.44;5053010;28;20037;-84
2022/02/20 03:33:07;;;;;;;46.78;26.45;;;;;;;6.06;75.28;97413.84;5052554;28;20025;-84
2022/02/20 03:35:33;;;;;;;153.73;69.82;;;;;;;6.08;74.73;97412.84;5052248;28;20032;-85
2022/02/20 03:37:58;;;;;;;58.90;27.52;;;;;;;6.08;74.57;97411.97;5052654;28;20036;-84
2022/02/20 03:40:25;;;;;;;40.97;20.98;;;;;;;6.14;74.22;97423.19;5069561;28;20036;-84
2022/02/20 03:42:51;;;;;;;41.72;20.55;;;;;;;6.16;74.23;97423.94;5019028;28;20048;-84
2022/02/20 03:45:17;;;;;;;44.10;19.95;;;;;;;6.13;74.60;97426.75;5069539;28;20032;-84
2022/02/20 03:47:42;;;;;;;39.42;19.27;;;;;;;5.95;76.08;97433.78;5019677;28;20104;-84
2022/02/20 03:50:09;;;;;;;42.05;21.35;;;;;;;5.84;77.24;97457.25;5019645;28;20052;-84
2022/02/20 03:52:35;;;;;;;39.30;21.90;;;;;;;5.61;78.53;97444.13;5019582;28;20488;-84
2022/02/20 03:55:01;;;;;;;40.00;21.45;;;;;;;5.59;78.78;97430.09;5053029;28;20106;-85
2022/02/20 03:57:32;;;;;;;42.17;20.55;;;;;;;5.57;79.31;97437.22;5074859;28;20021;-84
2022/02/20 03:59:58;;;;;;;41.17;20.23;;;;;;;5.56;79.71;97456.75;5068349;28;20021;-84
2022/02/20 04:02:23;;;;;;;46.65;20.95;;;;;;;5.66;79.46;97460.72;5052141;28;20138;-82
2022/02/20 04:04:49;;;;;;;45.72;20.83;;;;;;;5.75;79.12;97472.72;5051611;28;20480;-85
2022/02/20 04:07:14;;;;;;;41.22;21.38;;;;;;;5.64;79.74;97478.50;5018931;28;20025;-84
2022/02/20 04:09:40;;;;;;;48.78;21.63;;;;;;;5.62;80.13;97493.63;5019028;28;20028;-83
2022/02/20 04:12:06;;;;;;;46.60;21.60;;;;;;;5.66;80.03;97494.34;5051600;28;20539;-84
2022/02/20 04:14:31;;;;;;;46.03;23.40;;;;;;;5.73;79.73;97522.34;5051926;28;20082;-83
2022/02/20 04:16:57;;;;;;;47.38;23.70;;;;;;;5.79;79.64;97533.53;5051350;28;20040;-84
2022/02/20 04:19:22;;;;;;;53.72;24.50;;;;;;;5.78;79.43;97531.81;5018402;28;20503;-84
2022/02/20 04:21:48;;;;;;;41.45;21.63;;;;;;;5.96;78.07;97543.47;5051250;28;20086;-82
2022/02/20 04:24:13;;;;;;;51.13;23.42;;;;;;;5.97;77.29;97539.88;5051401;28;20068;-82
2022/02/20 04:26:39;;;;;;;49.45;23.55;;;;;;;5.89;77.67;97544.66;5018900;28;20087;-84
2022/02/20 04:29:04;;;;;;;39.53;20.52;;;;;;;5.89;77.42;97555.28;5018312;28;20105;-84
2022/02/20 04:31:30;;;;;;;40.60;20.42;;;;;;;5.95;77.23;97562.97;5018422;28;20035;-84
2022/02/20 04:33:57;;;;;;;41.83;18.35;;;;;;;5.96;76.54;97556.75;5034813;28;20079;-85
2022/02/20 04:36:23;;;;;;;35.85;16.80;;;;;;;6.09;75.98;97575.66;5018592;28;20030;-85
2022/02/20 04:38:49;;;;;;;30.75;16.83;;;;;;;6.23;74.26;97592.72;5051292;28;20029;-83
2022/02/20 04:41:15;;;;;;;36.78;17.85;;;;;;;6.37;73.83;97610.69;5050894;28;20048;-84
2022/02/20 04:43:41;;;;;;;44.67;21.40;;;;;;;6.51;72.08;97608.28;5068136;28;20017;-84
2022/02/20 04:46:06;;;;;;;39.47;19.88;;;;;;;6.60;71.37;97602.56;5035097;28;20089;-85
2022/02/20 04:48:32;;;;;;;36.75;17.50;;;;;;;6.76;70.25;97600.06;5050943;28;20157;-84
2022/02/20 04:50:58;;;;;;;35.35;18.23;;;;;;;6.90;69.65;97606.47;5018536;28;20511;-85
2022/02/20 04:53:24;;;;;;;29.80;16.10;;;;;;;6.89;69.97;97604.72;5051023;28;20021;-84
2022/02/20 04:55:49;;;;;;;29.10;14.15;;;;;;;6.91;70.24;97616.16;5067594;28;20063;-84
2022/02/20 04:58:15;;;;;;;29.25;14.93;;;;;;;6.93;70.07;97627.59;5067982;28;20021;-84
2022/02/20 05:00:43;;;;;;;28.45;13.63;;;;;;;6.95;69.72;97617.72;5018039;28;20025;-84
2022/02/20 05:03:09;;;;;;;32.63;12.57;;;;;;;6.96;69.97;97616.81;5050714;28;20040;-84
2022/02/20 05:05:37;;;;;;;29.15;15.15;;;;;;;6.98;69.92;97619.41;5051482;28;20061;-84
2022/02/20 05:08:04;;;;;;;30.38;14.77;;;;;;;7.08;69.52;97610.06;5018824;28;20056;-84
2022/02/20 05:10:29;;;;;;;31.88;15.80;;;;;;;7.20;68.84;97605.97;5034581;28;20094;-84
2022/02/20 05:12:55;;;;;;;21.70;10.07;;;;;;;7.31;68.13;97616.94;5018412;28;20037;-82
2022/02/20 05:15:20;;;;;;;29.13;15.20;;;;;;;7.38;67.69;97624.53;5051709;28;20036;-85
2022/02/20 05:17:46;;;;;;;27.35;13.45;;;;;;;7.54;67.17;97624.66;5019313;28;20056;-85
2022/02/20 05:20:11;;;;;;;39.17;15.98;;;;;;;7.55;68.12;97621.94;5018437;28;20132;-84
2022/02/20 05:22:37;;;;;;;35.55;14.98;;;;;;;7.56;67.56;97612.19;5051280;28;20056;-83
2022/02/20 05:25:03;;;;;;;34.35;17.40;;;;;;;7.64;67.63;97625.94;5051763;28;20421;-83
2022/02/20 05:27:30;;;;;;;70.35;31.98;;;;;;;7.71;67.29;97621.19;5034951;28;20489;-83
2022/02/20 05:29:56;;;;;;;31.33;14.77;;;;;;;7.82;65.45;97617.06;5034026;28;20029;-84
2022/02/20 05:32:24;;;;;;;41.75;16.42;;;;;;;7.98;65.29;97622.47;5050883;28;20082;-83
2022/02/20 05:34:53;;;;;;;30.15;10.88;;;;;;;8.03;64.93;97602.66;5022479;28;20029;-84
2022/02/20 05:37:19;;;;;;;39.75;10.32;;;;;;;8.07;64.75;97612.22;5054795;28;20500;-83
2022/02/20 05:39:46;;;;;;;32.30;11.52;;;;;;;8.08;65.49;97618.41;5058103;28;20040;-86
2022/02/20 05:42:12;;;;;;;20.13;8.95;;;;;;;7.88;65.17;97595.44;5042626;28;20507;-82
2022/02/20 05:45:02;;;;;;;31.45;11.40;;;;;;;8.06;65.94;97629.13;5063659;28;20029;-86
2022/02/20 05:47:28;;;;;;;25.08;10.95;;;;;;;7.97;65.82;97624.28;5071709;28;20028;-84
2022/02/20 05:49:53;;;;;;;46.58;21.00;;;;;;;7.80;67.00;97610.97;5059781;28;20047;-84
2022/02/20 05:52:24;;;;;;;44.03;19.30;;;;;;;7.85;67.16;97624.88;5022603;28;20025;-84
2022/02/20 05:54:50;;;;;;;42.40;19.20;;;;;;;7.76;67.01;97617.38;5055892;28;20051;-83
2022/02/20 05:57:15;;;;;;;45.90;21.27;;;;;;;7.72;67.25;97615.78;5054982;28;20449;-84
2022/02/20 05:59:41;;;;;;;43.22;21.23;;;;;;;7.65;67.07;97603.72;5021902;28;20459;-85
2022/02/20 06:02:06;;;;;;;45.70;21.52;;;;;;;7.79;66.53;97614.53;5055352;28;20508;-84
2022/02/20 06:04:32;;;;;;;79.68;37.50;;;;;;;7.76;65.98;97601.38;5054815;28;20029;-84
2022/02/20 06:07:03;;;;;;;34.60;17.45;;;;;;;8.07;64.45;97633.53;5054858;28;20082;-85
2022/02/20 06:09:29;;;;;;;34.08;15.80;;;;;;;8.00;64.46;97596.63;5022736;28;20385;-84
2022/02/20 06:11:55;;;;;;;30.13;12.98;;;;;;;8.06;63.77;97601.63;5054441;28;20115;-83
2022/02/20 06:14:20;;;;;;;35.17;14.63;;;;;;;8.26;64.31;97635.25;5021698;28;20138;-83
2022/02/20 06:16:46;;;;;;;47.65;22.02;;;;;;;8.29;64.82;97637.81;5071788;28;20116;-83
2022/02/20 06:19:19;;;;;;;42.38;20.48;;;;;;;8.47;64.05;97644.84;5055070;28;20078;-84
2022/02/20 06:21:44;;;;;;;42.08;21.60;;;;;;;8.46;64.46;97632.47;5070604;28;20033;-85
2022/02/20 06:24:10;;;;;;;61.65;24.88;;;;;;;8.58;64.54;97637.16;5070898;28;20103;-85
2022/02/20 06:26:35;;;;;;;55.97;25.30;;;;;;;8.62;64.73;97622.69;5021206;28;20043;-84
2022/02/20 06:29:01;;;;;;;76.00;31.70;;;;;;;8.70;63.99;97609.84;5021161;28;20021;-85
2022/02/20 06:31:27;;;;;;;77.80;40.38;;;;;;;8.85;63.58;97603.69;5020758;28;20021;-83
2022/02/20 06:33:52;;;;;;;99.63;47.65;;;;;;;8.81;63.57;97572.78;5021125;28;20408;-84
2022/02/20 06:36:19;;;;;;;131.38;64.60;;;;;;;8.82;63.32;97584.31;5023081;28;20170;-87
2022/02/20 06:38:46;;;;;;;172.55;84.13;;;;;;;8.70;63.87;97567.19;5076860;28;20037;-86
2022/02/20 06:41:11;;;;;;;164.60;81.43;;;;;;;8.68;63.75;97563.72;5038362;28;20087;-89
2022/02/20 06:43:38;;;;;;;121.32;58.45;;;;;;;8.79;64.85;97600.50;5052037;28;20032;-75
2022/02/20 06:46:04;;;;;;;114.95;56.05;;;;;;;8.74;64.57;97578.56;5077042;28;20393;-90
2022/02/20 06:48:29;;;;;;;135.80;65.10;;;;;;;8.79;64.18;97569.34;5017979;28;20024;-84
2022/02/20 06:50:55;;;;;;;116.38;57.67;;;;;;;8.61;65.56;97589.84;5067218;28;20099;-78
2022/02/20 06:53:20;;;;;;;84.70;46.33;;;;;;;8.50;66.09;97600.22;5048823;28;20414;-76
2022/02/20 06:55:46;;;;;;;81.00;44.53;;;;;;;8.27;67.29;97597.03;5065583;28;20520;-76
2022/02/20 06:58:12;;;;;;;71.07;39.60;;;;;;;8.35;67.52;97590.38;5065681;28;20071;-82
2022/02/20 07:00:37;;;;;;;96.28;50.42;;;;;;;8.42;67.25;97590.94;5015472;28;20099;-76
2022/02/20 07:03:03;;;;;;;112.45;63.70;;;;;;;8.35;67.72;97600.16;5065346;28;20032;-77
2022/02/20 07:05:28;;;;;;;102.78;54.85;;;;;;;8.28;67.87;97596.97;5032234;28;20082;-75
2022/02/20 07:07:54;;;;;;;71.03;39.83;;;;;;;8.38;67.41;97608.88;5050131;28;20458;-76
2022/02/20 07:10:20;;;;;;;54.05;29.10;;;;;;;8.43;67.73;97616.66;5066285;28;20370;-77
2022/02/20 07:12:45;;;;;;;42.00;23.10;;;;;;;8.56;67.31;97612.38;5065468;28;20025;-77
2022/02/20 07:15:11;;;;;;;41.17;21.58;;;;;;;8.58;66.57;97607.84;5049659;28;20024;-76
2022/02/20 07:17:37;;;;;;;44.40;22.38;;;;;;;8.66;65.96;97608.28;5048728;28;20055;-76
2022/02/20 07:20:04;;;;;;;45.72;23.35;;;;;;;8.80;65.70;97610.22;5031510;28;20033;-75
2022/02/20 07:22:31;;;;;;;37.47;19.58;;;;;;;9.03;64.25;97613.34;5065139;28;20443;-75
2022/02/20 07:24:57;;;;;;;37.30;19.88;;;;;;;9.27;63.32;97609.31;5031404;28;20037;-74
2022/02/20 07:27:22;;;;;;;43.20;22.00;;;;;;;9.22;63.07;97606.06;5064982;28;20021;-75
2022/02/20 07:29:48;;;;;;;36.38;19.45;;;;;;;9.51;62.06;97598.19;5049519;28;20025;-75
2022/02/20 07:32:14;;;;;;;36.30;19.42;;;;;;;9.68;61.03;97579.41;5031570;28;20029;-77
2022/02/20 07:34:39;;;;;;;46.85;19.60;;;;;;;9.77;60.40;97578.88;5049439;28;20025;-76
2022/02/20 07:37:05;;;;;;;34.88;18.10;;;;;;;9.90;59.11;97582.56;5048829;28;20404;-78
2022/02/20 07:39:30;;;;;;;34.10;17.90;;;;;;;10.04;58.69;97579.94;5047975;28;21071;-76
2022/02/20 07:41:56;;;;;;;41.00;19.00;;;;;;;10.18;57.87;97563.94;5049116;28;20047;-75
2022/02/20 07:44:22;;;;;;;40.75;20.38;;;;;;;10.45;56.55;97556.09;5047636;28;20382;-75
2022/02/20 07:46:48;;;;;;;41.67;19.95;;;;;;;10.73;55.79;97557.91;5049148;28;20028;-75
2022/02/20 07:49:14;;;;;;;37.17;19.98;;;;;;;11.03;54.40;97547.97;5048768;28;20029;-77
2022/02/20 07:51:40;;;;;;;31.70;18.55;;;;;;;11.50;53.07;97542.22;5064445;28;20105;-77
2022/02/20 07:54:05;;;;;;;39.92;20.35;;;;;;;11.67;52.19;97519.63;5064174;28;20075;-75
2022/02/20 07:56:31;;;;;;;43.38;19.48;;;;;;;11.96;51.04;97515.91;5047581;28;20035;-75
2022/02/20 07:58:56;;;;;;;44.33;21.77;;;;;;;11.90;50.94;97497.56;5064253;28;20033;-76
2022/02/20 08:01:22;;;;;;;44.40;22.20;;;;;;;12.24;50.45;97499.63;5064235;28;20047;-76
2022/02/20 08:03:49;;;;;;;36.90;22.90;;;;;;;12.43;50.02;97486.66;5063954;28;20784;-75
2022/02/20 08:06:14;;;;;;;39.42;22.67;;;;;;;12.44;50.21;97485.69;5047001;28;20040;-77
2022/02/20 08:08:40;;;;;;;43.88;22.40;;;;;;;12.87;49.54;97493.38;5064335;28;20032;-75
2022/02/20 08:11:06;;;;;;;39.90;22.27;;;;;;;12.99;nan;97474.53;5031054;28;20040;-76
2022/02/20 08:13:31;;;;;;;32.28;18.15;;;;;;;13.21;47.42;97468.50;5030761;28;20096;-76
2022/02/20 08:15:58;;;;;;;30.17;18.05;;;;;;;13.43;47.11;97465.94;5048827;28;20025;-76
2022/02/20 08:18:24;;;;;;;38.22;18.27;;;;;;;13.46;47.35;97476.47;5045210;28;20519;-79
2022/02/20 08:20:49;;;;;;;34.47;16.75;;;;;;;13.21;48.00;97468.50;5047847;28;20052;-73
2022/02/20 08:23:17;;;;;;;37.40;16.80;;;;;;;13.52;47.78;97459.88;5047018;28;20044;-86
2022/02/20 08:25:44;;;;;;;37.70;20.58;;;;;;;13.81;46.95;97457.66;5030923;28;20029;-78
2022/02/20 08:28:10;;;;;;;26.20;14.63;;;;;;;13.68;46.33;97456.03;5030448;28;20045;-77
2022/02/20 08:30:36;;;;;;;28.80;13.38;;;;;;;14.18;45.39;97449.47;5046879;28;20036;-77
2022/02/20 08:33:02;;;;;;;25.10;13.35;;;;;;;14.41;44.30;97452.09;5067035;28;20397;-86
2022/02/20 08:35:28;;;;;;;27.27;11.63;;;;;;;13.85;44.63;97452.91;5052974;28;20033;-85
2022/02/20 08:37:54;;;;;;;36.38;14.13;;;;;;;13.96;44.88;97456.50;5053283;28;20089;-85
2022/02/20 08:40:19;;;;;;;39.90;18.40;;;;;;;14.22;44.54;97459.84;5052992;28;20043;-84
2022/02/20 08:42:47;;;;;;;37.53;19.08;;;;;;;14.41;43.69;97446.69;5020312;28;20036;-86
2022/02/20 08:45:14;;;;;;;35.65;18.83;;;;;;;14.68;43.52;97450.84;5052505;28;20029;-84
2022/02/20 08:47:39;;;;;;;34.22;18.20;;;;;;;14.62;43.03;97428.84;5018875;28;20073;-85
2022/02/20 08:50:08;;;;;;;38.10;21.10;;;;;;;14.27;43.81;97449.59;5019606;28;20544;-85
2022/02/20 08:52:35;;;;;;;41.58;21.92;;;;;;;14.04;44.31;97447.81;5019476;28;20032;-85
2022/02/20 08:55:00;;;;;;;37.38;19.98;;;;;;;13.68;45.44;97450.66;5018904;28;20120;-85
2022/02/20 08:57:26;;;;;;;38.90;18.23;;;;;;;13.71;44.92;97436.97;5018701;28;20056;-86
2022/02/20 08:59:52;;;;;;;40.15;19.73;;;;;;;13.95;44.41;97424.34;5056963;28;20029;-86
2022/02/20 09:02:18;;;;;;;32.10;19.10;;;;;;;14.56;43.56;97445.47;5017987;28;20087;-86
2022/02/20 09:04:44;;;;;;;29.48;17.92;;;;;;;14.66;43.24;97429.47;5034841;28;20029;-85
2022/02/20 09:07:09;;;;;;;27.75;14.25;;;;;;;14.67;43.23;97424.94;5051700;28;20032;-86
2022/02/20 09:09:36;;;;;;;25.27;13.43;;;;;;;14.82;42.71;97423.69;5051597;28;20513;-87
2022/02/20 09:12:02;;;;;;;32.08;15.20;;;;;;;14.96;42.88;97445.81;5019312;28;20041;-86
2022/02/20 09:14:28;;;;;;;25.30;12.65;;;;;;;14.30;44.50;97438.59;5018814;28;20037;-85
2022/02/20 09:16:54;;;;;;;26.98;14.93;;;;;;;14.21;45.08;97443.84;5051607;28;20056;-86
2022/02/20 09:19:19;;;;;;;26.52;12.60;;;;;;;14.42;44.95;97448.44;5018652;28;20047;-85
2022/02/20 09:21:45;;;;;;;21.77;10.98;;;;;;;14.28;44.86;97445.03;5051298;28;20110;-85
2022/02/20 09:24:10;;;;;;;18.73;9.50;;;;;;;14.27;44.48;97428.06;5019362;28;20110;-85
2022/02/20 09:26:36;;;;;;;17.00;10.80;;;;;;;14.67;43.84;97436.56;5051653;28;20029;-86
2022/02/20 09:29:02;;;;;;;13.07;7.78;;;;;;;15.12;42.42;97440.03;5068398;28;20024;-86
2022/02/20 09:31:28;;;;;;;18.92;9.05;;;;;;;15.69;41.44;97423.59;5018590;28;20095;-86
2022/02/20 09:33:53;;;;;;;18.35;9.18;;;;;;;16.10;40.72;97409.25;5018045;28;20017;-86
2022/02/20 09:36:19;;;;;;;17.85;9.55;;;;;;;16.52;39.97;97413.63;5051551;28;20476;-86
2022/02/20 09:38:45;;;;;;;14.88;8.95;;;;;;;16.60;38.87;97402.19;5052244;28;20032;-85
2022/02/20 09:41:11;;;;;;;14.38;8.02;;;;;;;16.66;39.02;97407.91;5052678;28;20024;-86
2022/02/20 09:46:59;;;;;;;16.13;8.18;;;;;;;16.51;39.20;97417.31;5053463;28;20056;-86
2022/02/20 09:49:27;;;;;;;12.00;6.75;;;;;;;16.48;39.25;97424.84;5050917;28;20490;-85
2022/02/20 09:51:52;;;;;;;13.05;6.65;;;;;;;16.76;38.67;97419.56;5051572;28;20453;-84
2022/02/20 09:54:18;;;;;;;17.77;7.93;;;;;;;16.78;38.62;97422.16;5018991;28;20025;-85
2022/02/20 09:56:44;;;;;;;15.48;8.32;;;;;;;17.21;38.04;97419.16;5019489;28;20075;-86
2022/02/20 09:59:09;;;;;;;11.65;6.00;;;;;;;17.74;37.11;97409.72;5052298;28;20112;-86
2022/02/20 10:01:35;;;;;;;10.32;5.25;;;;;;;18.72;35.39;97410.25;5052027;28;20401;-86
2022/02/20 10:04:10;;;;;;;12.60;6.50;;;;;;;19.46;33.95;97400.19;5052559;28;20126;-86
2022/02/20 10:06:37;;;;;;;12.23;5.55;;;;;;;18.83;34.65;97396.50;5053451;28;20025;-85
2022/02/20 10:09:03;;;;;;;11.20;5.43;;;;;;;18.60;34.67;97389.78;5052642;28;20091;-85
2022/02/20 10:11:30;;;;;;;11.13;5.30;;;;;;;17.91;35.64;97391.03;5052701;28;20028;-86
2022/02/20 10:14:12;;;;;;;18.70;7.70;;;;;;;18.01;35.60;97391.88;5019103;28;20029;-85
2022/02/20 10:16:38;;;;;;;;;;;;;;;18.64;34.99;97395.75;5020726;28;20118;-86
2022/02/20 10:19:03;;;;;;;10.23;5.47;;;;;;;19.10;34.66;97395.69;5020231;28;19909;-86
2022/02/20 10:21:34;;;;;;;13.57;7.20;;;;;;;19.21;34.36;97395.44;5054536;28;20029;-87
2022/02/20 10:24:07;;;;;;;14.25;8.13;;;;;;;19.13;34.55;97375.53;5022565;28;20032;-87
2022/02/20 10:26:41;;;;;;;11.57;6.40;;;;;;;19.13;34.25;97375.53;5071961;28;20032;-86
2022/02/20 10:29:11;;;;;;;12.93;7.53;;;;;;;19.78;33.58;97372.47;5021946;28;20036;-86
2022/02/20 10:31:48;;;;;;;14.73;7.95;;;;;;;19.94;33.50;97366.34;5021852;28;20599;-86
2022/02/20 10:34:21;;;;;;;14.25;7.10;;;;;;;21.08;31.83;97364.19;5055331;28;20409;-86
2022/02/20 10:37:05;;;;;;;12.68;7.18;;;;;;;21.15;31.67;97355.38;5039349;28;20447;-86
2022/02/20 10:39:36;;;;;;;13.35;8.20;;;;;;;21.59;31.47;97345.97;5056137;28;20033;-87
2022/02/20 10:42:13;;;;;;;15.57;8.10;;;;;;;22.88;29.78;97345.84;5056765;28;20032;-85
2022/02/20 10:44:52;;;;;;;10.40;6.25;;;;;;;23.87;28.22;97331.47;5072660;28;20111;-86
2022/02/20 10:47:18;;;;;;;14.30;7.50;;;;;;;24.03;27.51;97321.22;5054782;28;20381;-86
2022/02/20 10:49:43;;;;;;;13.20;7.22;;;;;;;24.20;27.02;97309.16;5038354;28;20032;-86
2022/02/20 10:52:27;;;;;;;14.50;7.13;;;;;;;21.44;30.72;97323.13;5022402;28;20033;-86
2022/02/20 10:55:04;;;;;;;14.32;8.07;;;;;;;23.98;28.10;97318.19;5071651;28;20029;-86
2022/02/20 10:57:35;;;;;;;10.73;6.25;;;;;;;24.83;26.45;97302.31;5071266;28;20534;-86
2022/02/20 11:00:21;;;;;;;14.73;7.15;;;;;;;25.27;25.89;97310.47;5022432;28;20032;-87
2022/02/20 11:03:04;;;;;;;9.65;6.55;;;;;;;23.49;27.36;97292.31;5054827;28;20025;-87
2022/02/20 11:05:31;;;;;;;13.57;6.95;;;;;;;22.67;28.69;97310.94;5055472;28;20111;-86
2022/02/20 11:07:58;;;;;;;18.80;10.40;;;;;;;21.71;30.06;97301.03;5021814;28;20056;-86
2022/02/20 11:10:27;;;;;;;11.30;6.45;;;;;;;21.09;30.85;97286.16;5022932;28;20032;-88
2022/02/20 11:12:53;;;;;;;11.00;4.95;;;;;;;20.39;31.66;97296.41;5056019;28;20122;-87
2022/02/20 11:15:19;;;;;;;12.57;5.32;;;;;;;20.47;31.92;97295.59;5073089;28;20021;-86
2022/02/20 11:17:45;;;;;;;9.82;5.00;;;;;;;20.11;31.99;97297.56;5022759;28;20049;-87
2022/02/20 11:20:11;;;;;;;9.15;4.97;;;;;;;19.77;32.11;97302.94;5055645;28;20492;-87
2022/02/20 11:22:38;;;;;;;12.73;5.05;;;;;;;18.79;33.82;97297.56;5056210;28;20040;-86
2022/02/20 11:25:06;;;;;;;19.55;5.25;;;;;;;18.96;33.39;97282.31;5024198;28;20025;-87